sensor_id;sensor_type;location;lat;lon;timestamp;P1;durP1;ratioP1;P2;durP2;ratioP2
77324;SDS011;66387;53.440;10.390;2023-04-15T00:00:14;5.57;;;4.28;;
77324;SDS011;66387;53.440;10.390;2023-04-15T00:02:39;5.80;;;4.78;;
77324;SDS011;66387;53.440;10.390;2023-04-15T00:05:05;5.68;;;4.05;;
77324;SDS011;66387;53.440;10.390;2023-04-15T00:07:31;5.93;;;4.20;;
77324;SDS011;66387;53.440;10.390;2023-04-15T00:09:57;5.40;;;3.88;;
77324;SDS011;66387;53.440;10.390;2023-04-15T00:12:23;7.53;;;4.50;;
77324;SDS011;66387;53.440;10.390;2023-04-15T00:14:48;6.25;;;3.90;;
77324;SDS011;66387;53.440;10.390;2023-04-15T00:17:15;5.05;;;4.18;;
77324;SDS011;66387;53.440;10.390;2023-04-15T00:19:41;5.68;;;4.25;;
77324;SDS011;66387;53.440;10.390;2023-04-15T00:22:06;5.97;;;3.80;;
77324;SDS011;66387;53.440;10.390;2023-04-15T00:24:32;7.65;;;4.38;;
77324;SDS011;66387;53.440;10.390;2023-04-15T00:26:57;5.57;;;3.30;;
77324;SDS011;66387;53.440;10.390;2023-04-15T00:29:23;6.20;;;4.55;;
77324;SDS011;66387;53.440;10.390;2023-04-15T00:31:49;5.65;;;4.32;;
77324;SDS011;66387;53.440;10.390;2023-04-15T00:34:14;6.13;;;3.78;;
77324;SDS011;66387;53.440;10.390;2023-04-15T00:36:40;5.35;;;4.13;;
77324;SDS011;66387;53.440;10.390;2023-04-15T00:39:06;8.02;;;4.75;;
77324;SDS011;66387;53.440;10.390;2023-04-15T00:41:31;7.38;;;4.40;;
77324;SDS011;66387;53.440;10.390;2023-04-15T00:43:58;6.22;;;3.90;;
77324;SDS011;66387;53.440;10.390;2023-04-15T00:46:24;5.53;;;4.32;;
77324;SDS011;66387;53.440;10.390;2023-04-15T00:48:51;5.85;;;4.13;;
77324;SDS011;66387;53.440;10.390;2023-04-15T00:51:17;8.02;;;4.70;;
77324;SDS011;66387;53.440;10.390;2023-04-15T00:53:42;6.73;;;3.97;;
77324;SDS011;66387;53.440;10.390;2023-04-15T00:56:08;7.27;;;4.77;;
77324;SDS011;66387;53.440;10.390;2023-04-15T00:58:33;5.63;;;3.87;;
77324;SDS011;66387;53.440;10.390;2023-04-15T01:00:58;6.43;;;4.20;;
77324;SDS011;66387;53.440;10.390;2023-04-15T01:03:24;6.53;;;4.50;;
77324;SDS011;66387;53.440;10.390;2023-04-15T01:05:49;6.93;;;4.68;;
77324;SDS011;66387;53.440;10.390;2023-04-15T01:08:15;7.82;;;5.15;;
77324;SDS011;66387;53.440;10.390;2023-04-15T01:10:40;6.30;;;4.43;;
77324;SDS011;66387;53.440;10.390;2023-04-15T01:13:06;6.53;;;4.50;;
77324;SDS011;66387;53.440;10.390;2023-04-15T01:15:31;5.72;;;4.60;;
77324;SDS011;66387;53.440;10.390;2023-04-15T01:17:57;6.10;;;4.63;;
77324;SDS011;66387;53.440;10.390;2023-04-15T01:20:23;7.28;;;4.80;;
77324;SDS011;66387;53.440;10.390;2023-04-15T01:22:48;6.97;;;5.20;;
77324;SDS011;66387;53.440;10.390;2023-04-15T01:25:16;7.53;;;5.25;;
77324;SDS011;66387;53.440;10.390;2023-04-15T01:27:43;6.95;;;4.63;;
77324;SDS011;66387;53.440;10.390;2023-04-15T01:30:09;7.03;;;5.13;;
77324;SDS011;66387;53.440;10.390;2023-04-15T01:32:35;7.43;;;4.90;;
77324;SDS011;66387;53.440;10.390;2023-04-15T01:35:01;8.88;;;6.20;;
77324;SDS011;66387;53.440;10.390;2023-04-15T01:37:26;8.43;;;5.30;;
77324;SDS011;66387;53.440;10.390;2023-04-15T01:39:52;7.80;;;5.22;;
77324;SDS011;66387;53.440;10.390;2023-04-15T01:42:18;7.93;;;5.00;;
77324;SDS011;66387;53.440;10.390;2023-04-15T01:44:43;9.70;;;6.20;;
77324;SDS011;66387;53.440;10.390;2023-04-15T01:47:08;10.13;;;5.78;;
77324;SDS011;66387;53.440;10.390;2023-04-15T01:49:33;7.97;;;5.47;;
77324;SDS011;66387;53.440;10.390;2023-04-15T01:51:59;8.00;;;5.68;;
77324;SDS011;66387;53.440;10.390;2023-04-15T01:54:24;8.63;;;5.90;;
77324;SDS011;66387;53.440;10.390;2023-04-15T01:56:51;11.77;;;7.00;;
77324;SDS011;66387;53.440;10.390;2023-04-15T01:59:16;8.10;;;5.25;;
77324;SDS011;66387;53.440;10.390;2023-04-15T02:01:41;10.77;;;6.07;;
77324;SDS011;66387;53.440;10.390;2023-04-15T02:04:07;10.60;;;6.20;;
77324;SDS011;66387;53.440;10.390;2023-04-15T02:06:40;11.27;;;6.15;;
77324;SDS011;66387;53.440;10.390;2023-04-15T02:09:05;9.27;;;5.85;;
77324;SDS011;66387;53.440;10.390;2023-04-15T02:11:30;10.20;;;5.87;;
77324;SDS011;66387;53.440;10.390;2023-04-15T02:13:56;11.48;;;7.85;;
77324;SDS011;66387;53.440;10.390;2023-04-15T02:16:21;11.43;;;6.33;;
77324;SDS011;66387;53.440;10.390;2023-04-15T02:18:46;14.63;;;6.97;;
77324;SDS011;66387;53.440;10.390;2023-04-15T02:21:12;11.43;;;6.63;;
77324;SDS011;66387;53.440;10.390;2023-04-15T02:23:37;11.25;;;7.28;;
77324;SDS011;66387;53.440;10.390;2023-04-15T02:26:03;12.03;;;6.70;;
77324;SDS011;66387;53.440;10.390;2023-04-15T02:28:28;12.00;;;7.38;;
77324;SDS011;66387;53.440;10.390;2023-04-15T02:30:53;13.40;;;8.00;;
77324;SDS011;66387;53.440;10.390;2023-04-15T02:33:21;14.57;;;8.90;;
77324;SDS011;66387;53.440;10.390;2023-04-15T02:35:46;14.60;;;8.40;;
77324;SDS011;66387;53.440;10.390;2023-04-15T02:38:12;17.70;;;8.93;;
77324;SDS011;66387;53.440;10.390;2023-04-15T02:40:38;15.50;;;7.88;;
77324;SDS011;66387;53.440;10.390;2023-04-15T02:43:04;13.40;;;7.38;;
77324;SDS011;66387;53.440;10.390;2023-04-15T02:45:31;13.38;;;7.63;;
77324;SDS011;66387;53.440;10.390;2023-04-15T02:47:56;12.85;;;8.23;;
77324;SDS011;66387;53.440;10.390;2023-04-15T02:50:22;17.20;;;8.30;;
77324;SDS011;66387;53.440;10.390;2023-04-15T02:52:48;13.38;;;7.57;;
77324;SDS011;66387;53.440;10.390;2023-04-15T02:55:13;12.93;;;8.38;;
77324;SDS011;66387;53.440;10.390;2023-04-15T02:57:38;16.40;;;10.13;;
77324;SDS011;66387;53.440;10.390;2023-04-15T03:00:05;19.20;;;8.88;;
77324;SDS011;66387;53.440;10.390;2023-04-15T03:02:34;17.92;;;9.30;;
77324;SDS011;66387;53.440;10.390;2023-04-15T03:05:00;15.93;;;8.95;;
77324;SDS011;66387;53.440;10.390;2023-04-15T03:07:26;20.23;;;9.77;;
77324;SDS011;66387;53.440;10.390;2023-04-15T03:09:51;23.07;;;10.90;;
77324;SDS011;66387;53.440;10.390;2023-04-15T03:12:17;15.55;;;9.68;;
77324;SDS011;66387;53.440;10.390;2023-04-15T03:14:42;17.07;;;10.17;;
77324;SDS011;66387;53.440;10.390;2023-04-15T03:17:07;21.50;;;10.53;;
77324;SDS011;66387;53.440;10.390;2023-04-15T03:19:32;18.30;;;10.30;;
77324;SDS011;66387;53.440;10.390;2023-04-15T03:21:58;19.33;;;10.23;;
77324;SDS011;66387;53.440;10.390;2023-04-15T03:24:23;22.47;;;11.40;;
77324;SDS011;66387;53.440;10.390;2023-04-15T03:26:48;18.17;;;11.38;;
77324;SDS011;66387;53.440;10.390;2023-04-15T03:29:14;20.88;;;9.93;;
77324;SDS011;66387;53.440;10.390;2023-04-15T03:31:40;21.17;;;11.00;;
77324;SDS011;66387;53.440;10.390;2023-04-15T03:34:05;18.50;;;10.32;;
77324;SDS011;66387;53.440;10.390;2023-04-15T03:36:31;21.55;;;10.10;;
77324;SDS011;66387;53.440;10.390;2023-04-15T03:41:25;20.92;;;10.75;;
77324;SDS011;66387;53.440;10.390;2023-04-15T03:43:52;21.20;;;10.30;;
77324;SDS011;66387;53.440;10.390;2023-04-15T03:46:17;17.85;;;9.80;;
77324;SDS011;66387;53.440;10.390;2023-04-15T03:48:43;18.65;;;10.07;;
77324;SDS011;66387;53.440;10.390;2023-04-15T03:51:08;22.95;;;11.13;;
77324;SDS011;66387;53.440;10.390;2023-04-15T03:53:33;22.50;;;10.43;;
77324;SDS011;66387;53.440;10.390;2023-04-15T03:55:59;18.63;;;9.77;;
77324;SDS011;66387;53.440;10.390;2023-04-15T03:58:24;19.37;;;10.00;;
77324;SDS011;66387;53.440;10.390;2023-04-15T04:00:49;20.67;;;10.47;;
77324;SDS011;66387;53.440;10.390;2023-04-15T04:03:15;21.85;;;10.43;;
77324;SDS011;66387;53.440;10.390;2023-04-15T04:05:40;21.48;;;11.38;;
77324;SDS011;66387;53.440;10.390;2023-04-15T04:08:06;22.47;;;10.27;;
77324;SDS011;66387;53.440;10.390;2023-04-15T04:10:31;20.98;;;11.82;;
77324;SDS011;66387;53.440;10.390;2023-04-15T04:12:56;23.27;;;11.70;;
77324;SDS011;66387;53.440;10.390;2023-04-15T04:15:22;22.47;;;10.90;;
77324;SDS011;66387;53.440;10.390;2023-04-15T04:17:47;25.00;;;11.17;;
77324;SDS011;66387;53.440;10.390;2023-04-15T04:20:12;28.53;;;11.53;;
77324;SDS011;66387;53.440;10.390;2023-04-15T04:22:38;24.63;;;12.13;;
77324;SDS011;66387;53.440;10.390;2023-04-15T04:25:04;25.30;;;12.23;;
77324;SDS011;66387;53.440;10.390;2023-04-15T04:27:29;30.67;;;13.15;;
77324;SDS011;66387;53.440;10.390;2023-04-15T04:29:55;28.77;;;11.73;;
77324;SDS011;66387;53.440;10.390;2023-04-15T04:32:20;24.63;;;12.87;;
77324;SDS011;66387;53.440;10.390;2023-04-15T04:34:45;24.23;;;13.03;;
77324;SDS011;66387;53.440;10.390;2023-04-15T04:37:12;24.60;;;12.73;;
77324;SDS011;66387;53.440;10.390;2023-04-15T04:39:37;30.60;;;13.05;;
77324;SDS011;66387;53.440;10.390;2023-04-15T04:42:02;26.63;;;13.07;;
77324;SDS011;66387;53.440;10.390;2023-04-15T04:44:27;33.40;;;14.33;;
77324;SDS011;66387;53.440;10.390;2023-04-15T04:46:53;26.63;;;12.83;;
77324;SDS011;66387;53.440;10.390;2023-04-15T04:49:18;34.73;;;14.23;;
77324;SDS011;66387;53.440;10.390;2023-04-15T04:51:43;34.30;;;13.23;;
77324;SDS011;66387;53.440;10.390;2023-04-15T04:54:09;31.67;;;14.45;;
77324;SDS011;66387;53.440;10.390;2023-04-15T04:56:34;32.43;;;15.00;;
77324;SDS011;66387;53.440;10.390;2023-04-15T04:58:59;36.13;;;14.00;;
77324;SDS011;66387;53.440;10.390;2023-04-15T05:01:25;35.28;;;15.82;;
77324;SDS011;66387;53.440;10.390;2023-04-15T05:03:53;32.67;;;15.13;;
77324;SDS011;66387;53.440;10.390;2023-04-15T05:06:18;31.67;;;14.90;;
77324;SDS011;66387;53.440;10.390;2023-04-15T05:08:43;31.93;;;14.73;;
77324;SDS011;66387;53.440;10.390;2023-04-15T05:11:10;38.67;;;17.95;;
77324;SDS011;66387;53.440;10.390;2023-04-15T05:13:35;40.83;;;16.30;;
77324;SDS011;66387;53.440;10.390;2023-04-15T05:16:03;34.25;;;16.80;;
77324;SDS011;66387;53.440;10.390;2023-04-15T05:18:31;35.92;;;17.77;;
77324;SDS011;66387;53.440;10.390;2023-04-15T05:20:57;39.35;;;17.50;;
77324;SDS011;66387;53.440;10.390;2023-04-15T05:23:22;39.47;;;18.10;;
77324;SDS011;66387;53.440;10.390;2023-04-15T05:25:48;39.53;;;17.93;;
77324;SDS011;66387;53.440;10.390;2023-04-15T05:28:13;41.57;;;18.40;;
77324;SDS011;66387;53.440;10.390;2023-04-15T05:30:38;35.43;;;16.73;;
77324;SDS011;66387;53.440;10.390;2023-04-15T05:33:04;37.13;;;16.90;;
77324;SDS011;66387;53.440;10.390;2023-04-15T05:35:29;39.97;;;18.83;;
77324;SDS011;66387;53.440;10.390;2023-04-15T05:37:55;42.05;;;18.13;;
77324;SDS011;66387;53.440;10.390;2023-04-15T05:40:20;41.95;;;18.67;;
77324;SDS011;66387;53.440;10.390;2023-04-15T05:42:46;43.97;;;18.80;;
77324;SDS011;66387;53.440;10.390;2023-04-15T05:45:11;37.30;;;18.90;;
77324;SDS011;66387;53.440;10.390;2023-04-15T05:47:37;42.30;;;20.75;;
77324;SDS011;66387;53.440;10.390;2023-04-15T05:50:02;43.30;;;19.67;;
77324;SDS011;66387;53.440;10.390;2023-04-15T05:52:29;39.75;;;19.35;;
77324;SDS011;66387;53.440;10.390;2023-04-15T05:54:54;42.33;;;20.55;;
77324;SDS011;66387;53.440;10.390;2023-04-15T05:57:20;44.78;;;19.48;;
77324;SDS011;66387;53.440;10.390;2023-04-15T05:59:45;42.40;;;20.50;;
77324;SDS011;66387;53.440;10.390;2023-04-15T06:02:11;43.90;;;20.27;;
77324;SDS011;66387;53.440;10.390;2023-04-15T06:04:36;39.53;;;17.63;;
77324;SDS011;66387;53.440;10.390;2023-04-15T06:07:01;38.70;;;19.65;;
77324;SDS011;66387;53.440;10.390;2023-04-15T06:09:26;42.47;;;19.43;;
77324;SDS011;66387;53.440;10.390;2023-04-15T06:11:53;41.45;;;19.98;;
77324;SDS011;66387;53.440;10.390;2023-04-15T06:14:18;41.00;;;19.63;;
77324;SDS011;66387;53.440;10.390;2023-04-15T06:16:43;37.75;;;19.50;;
77324;SDS011;66387;53.440;10.390;2023-04-15T06:19:09;38.97;;;19.63;;
77324;SDS011;66387;53.440;10.390;2023-04-15T06:21:34;34.73;;;19.17;;
77324;SDS011;66387;53.440;10.390;2023-04-15T06:24:00;37.70;;;19.13;;
77324;SDS011;66387;53.440;10.390;2023-04-15T06:26:26;39.70;;;20.30;;
77324;SDS011;66387;53.440;10.390;2023-04-15T06:28:52;38.17;;;21.10;;
77324;SDS011;66387;53.440;10.390;2023-04-15T06:31:17;42.00;;;21.15;;
77324;SDS011;66387;53.440;10.390;2023-04-15T06:33:42;44.43;;;22.13;;
77324;SDS011;66387;53.440;10.390;2023-04-15T06:36:08;41.60;;;22.23;;
77324;SDS011;66387;53.440;10.390;2023-04-15T06:38:33;46.33;;;21.83;;
77324;SDS011;66387;53.440;10.390;2023-04-15T06:40:58;43.60;;;21.87;;
77324;SDS011;66387;53.440;10.390;2023-04-15T06:43:23;40.33;;;20.70;;
77324;SDS011;66387;53.440;10.390;2023-04-15T06:45:49;35.28;;;20.30;;
77324;SDS011;66387;53.440;10.390;2023-04-15T06:48:14;43.23;;;23.43;;
77324;SDS011;66387;53.440;10.390;2023-04-15T06:50:40;41.13;;;21.50;;
77324;SDS011;66387;53.440;10.390;2023-04-15T06:53:05;40.83;;;22.27;;
77324;SDS011;66387;53.440;10.390;2023-04-15T06:55:31;40.88;;;21.17;;
77324;SDS011;66387;53.440;10.390;2023-04-15T06:57:57;39.70;;;22.92;;
77324;SDS011;66387;53.440;10.390;2023-04-15T07:00:23;39.40;;;22.77;;
77324;SDS011;66387;53.440;10.390;2023-04-15T07:02:48;42.03;;;22.90;;
77324;SDS011;66387;53.440;10.390;2023-04-15T07:05:13;45.97;;;26.03;;
77324;SDS011;66387;53.440;10.390;2023-04-15T07:07:38;51.50;;;23.27;;
77324;SDS011;66387;53.440;10.390;2023-04-15T07:10:04;44.53;;;23.90;;
77324;SDS011;66387;53.440;10.390;2023-04-15T07:12:30;47.88;;;25.52;;
77324;SDS011;66387;53.440;10.390;2023-04-15T07:14:55;52.00;;;25.37;;
77324;SDS011;66387;53.440;10.390;2023-04-15T07:17:20;45.97;;;23.40;;
77324;SDS011;66387;53.440;10.390;2023-04-15T07:19:46;46.33;;;24.98;;
77324;SDS011;66387;53.440;10.390;2023-04-15T07:22:11;45.45;;;22.73;;
77324;SDS011;66387;53.440;10.390;2023-04-15T07:24:37;47.17;;;25.53;;
77324;SDS011;66387;53.440;10.390;2023-04-15T07:27:02;49.10;;;24.17;;
77324;SDS011;66387;53.440;10.390;2023-04-15T07:29:28;50.30;;;26.33;;
77324;SDS011;66387;53.440;10.390;2023-04-15T07:31:56;51.90;;;26.85;;
77324;SDS011;66387;53.440;10.390;2023-04-15T07:34:21;47.97;;;25.17;;
77324;SDS011;66387;53.440;10.390;2023-04-15T07:36:46;48.43;;;24.90;;
77324;SDS011;66387;53.440;10.390;2023-04-15T07:39:15;57.70;;;26.73;;
77324;SDS011;66387;53.440;10.390;2023-04-15T07:44:09;51.20;;;25.15;;
77324;SDS011;66387;53.440;10.390;2023-04-15T07:46:34;51.45;;;24.33;;
77324;SDS011;66387;53.440;10.390;2023-04-15T07:49:01;47.67;;;25.45;;
77324;SDS011;66387;53.440;10.390;2023-04-15T07:51:26;52.53;;;26.17;;
77324;SDS011;66387;53.440;10.390;2023-04-15T07:53:53;54.42;;;25.73;;
77324;SDS011;66387;53.440;10.390;2023-04-15T07:56:18;45.42;;;24.40;;
77324;SDS011;66387;53.440;10.390;2023-04-15T07:58:44;45.78;;;23.35;;
77324;SDS011;66387;53.440;10.390;2023-04-15T08:01:10;51.33;;;23.83;;
77324;SDS011;66387;53.440;10.390;2023-04-15T08:03:35;49.28;;;23.70;;
77324;SDS011;66387;53.440;10.390;2023-04-15T08:06:01;47.03;;;23.92;;
77324;SDS011;66387;53.440;10.390;2023-04-15T08:08:26;42.60;;;24.17;;
77324;SDS011;66387;53.440;10.390;2023-04-15T08:10:51;46.83;;;23.87;;
77324;SDS011;66387;53.440;10.390;2023-04-15T08:13:17;50.60;;;24.30;;
77324;SDS011;66387;53.440;10.390;2023-04-15T08:15:42;45.42;;;23.55;;
77324;SDS011;66387;53.440;10.390;2023-04-15T08:18:08;50.35;;;23.67;;
77324;SDS011;66387;53.440;10.390;2023-04-15T08:20:33;46.33;;;22.67;;
77324;SDS011;66387;53.440;10.390;2023-04-15T08:22:58;47.95;;;23.52;;
77324;SDS011;66387;53.440;10.390;2023-04-15T08:25:24;46.20;;;23.57;;
77324;SDS011;66387;53.440;10.390;2023-04-15T08:27:49;47.80;;;23.02;;
77324;SDS011;66387;53.440;10.390;2023-04-15T08:30:15;48.25;;;22.55;;
77324;SDS011;66387;53.440;10.390;2023-04-15T08:32:46;40.20;;;21.75;;
77324;SDS011;66387;53.440;10.390;2023-04-15T08:35:11;45.90;;;23.27;;
77324;SDS011;66387;53.440;10.390;2023-04-15T08:37:37;42.00;;;22.05;;
77324;SDS011;66387;53.440;10.390;2023-04-15T08:40:02;46.87;;;25.13;;
77324;SDS011;66387;53.440;10.390;2023-04-15T08:42:36;44.63;;;23.00;;
77324;SDS011;66387;53.440;10.390;2023-04-15T08:45:05;45.40;;;22.88;;
77324;SDS011;66387;53.440;10.390;2023-04-15T08:47:34;47.45;;;22.80;;
77324;SDS011;66387;53.440;10.390;2023-04-15T08:50:02;39.33;;;21.70;;
77324;SDS011;66387;53.440;10.390;2023-04-15T08:52:29;39.63;;;20.55;;
77324;SDS011;66387;53.440;10.390;2023-04-15T08:54:55;41.70;;;23.25;;
77324;SDS011;66387;53.440;10.390;2023-04-15T08:57:24;45.88;;;23.02;;
77324;SDS011;66387;53.440;10.390;2023-04-15T08:59:51;43.08;;;22.85;;
77324;SDS011;66387;53.440;10.390;2023-04-15T09:02:18;38.95;;;20.40;;
77324;SDS011;66387;53.440;10.390;2023-04-15T09:04:43;43.53;;;22.50;;
77324;SDS011;66387;53.440;10.390;2023-04-15T09:07:08;41.67;;;20.73;;
77324;SDS011;66387;53.440;10.390;2023-04-15T09:09:33;43.43;;;22.83;;
77324;SDS011;66387;53.440;10.390;2023-04-15T09:12:01;43.20;;;22.65;;
77324;SDS011;66387;53.440;10.390;2023-04-15T09:14:27;41.50;;;22.30;;
77324;SDS011;66387;53.440;10.390;2023-04-15T09:19:25;37.42;;;21.00;;
77324;SDS011;66387;53.440;10.390;2023-04-15T09:21:52;37.58;;;21.02;;
77324;SDS011;66387;53.440;10.390;2023-04-15T09:24:18;41.38;;;23.08;;
77324;SDS011;66387;53.440;10.390;2023-04-15T09:26:44;35.53;;;22.48;;
77324;SDS011;66387;53.440;10.390;2023-04-15T09:29:10;33.45;;;19.75;;
77324;SDS011;66387;53.440;10.390;2023-04-15T09:31:39;35.83;;;20.88;;
77324;SDS011;66387;53.440;10.390;2023-04-15T09:34:06;36.72;;;19.40;;
77324;SDS011;66387;53.440;10.390;2023-04-15T09:39:13;36.70;;;19.58;;
77324;SDS011;66387;53.440;10.390;2023-04-15T09:41:39;39.35;;;21.23;;
77324;SDS011;66387;53.440;10.390;2023-04-15T09:44:04;36.65;;;21.20;;
77324;SDS011;66387;53.440;10.390;2023-04-15T09:46:40;33.40;;;18.45;;
77324;SDS011;66387;53.440;10.390;2023-04-15T09:49:07;31.80;;;18.35;;
77324;SDS011;66387;53.440;10.390;2023-04-15T09:51:34;28.40;;;19.00;;
77324;SDS011;66387;53.440;10.390;2023-04-15T09:54:00;33.38;;;20.15;;
77324;SDS011;66387;53.440;10.390;2023-04-15T09:56:31;33.67;;;20.65;;
77324;SDS011;66387;53.440;10.390;2023-04-15T10:01:25;30.70;;;19.57;;
77324;SDS011;66387;53.440;10.390;2023-04-15T10:03:51;32.03;;;18.02;;
77324;SDS011;66387;53.440;10.390;2023-04-15T10:06:18;31.92;;;19.58;;
77324;SDS011;66387;53.440;10.390;2023-04-15T10:08:43;30.20;;;17.45;;
77324;SDS011;66387;53.440;10.390;2023-04-15T10:11:10;31.38;;;20.27;;
77324;SDS011;66387;53.440;10.390;2023-04-15T10:13:36;30.75;;;17.73;;
77324;SDS011;66387;53.440;10.390;2023-04-15T10:16:04;23.77;;;15.55;;
77324;SDS011;66387;53.440;10.390;2023-04-15T10:18:33;31.15;;;18.20;;
77324;SDS011;66387;53.440;10.390;2023-04-15T10:21:01;26.83;;;16.30;;
77324;SDS011;66387;53.440;10.390;2023-04-15T10:23:28;28.23;;;18.13;;
77324;SDS011;66387;53.440;10.390;2023-04-15T10:25:54;26.77;;;18.02;;
77324;SDS011;66387;53.440;10.390;2023-04-15T10:28:20;31.92;;;18.15;;
77324;SDS011;66387;53.440;10.390;2023-04-15T10:30:46;28.42;;;17.83;;
77324;SDS011;66387;53.440;10.390;2023-04-15T10:33:13;31.70;;;18.38;;
77324;SDS011;66387;53.440;10.390;2023-04-15T10:35:41;29.23;;;17.67;;
77324;SDS011;66387;53.440;10.390;2023-04-15T10:46:23;24.77;;;16.42;;
77324;SDS011;66387;53.440;10.390;2023-04-15T10:49:10;23.90;;;15.98;;
77324;SDS011;66387;53.440;10.390;2023-04-15T10:51:52;23.73;;;16.33;;
77324;SDS011;66387;53.440;10.390;2023-04-15T10:56:50;22.77;;;15.00;;
77324;SDS011;66387;53.440;10.390;2023-04-15T10:59:16;23.05;;;15.70;;
77324;SDS011;66387;53.440;10.390;2023-04-15T11:12:42;21.70;;;15.48;;
77324;SDS011;66387;53.440;10.390;2023-04-15T11:20:44;19.75;;;14.35;;
77324;SDS011;66387;53.440;10.390;2023-04-15T11:25:36;21.40;;;14.85;;
77324;SDS011;66387;53.440;10.390;2023-04-15T11:28:02;20.33;;;14.48;;
77324;SDS011;66387;53.440;10.390;2023-04-15T11:30:29;23.35;;;14.55;;
77324;SDS011;66387;53.440;10.390;2023-04-15T11:32:57;21.10;;;15.38;;
77324;SDS011;66387;53.440;10.390;2023-04-15T11:35:27;19.05;;;14.02;;
77324;SDS011;66387;53.440;10.390;2023-04-15T11:37:53;20.23;;;14.80;;
77324;SDS011;66387;53.440;10.390;2023-04-15T11:40:25;24.05;;;15.55;;
77324;SDS011;66387;53.440;10.390;2023-04-15T11:43:10;19.42;;;14.68;;
77324;SDS011;66387;53.440;10.390;2023-04-15T11:45:37;19.65;;;14.70;;
77324;SDS011;66387;53.440;10.390;2023-04-15T11:48:13;18.02;;;13.85;;
77324;SDS011;66387;53.440;10.390;2023-04-15T11:50:39;21.15;;;13.77;;
77324;SDS011;66387;53.440;10.390;2023-04-15T11:53:05;19.77;;;14.35;;
77324;SDS011;66387;53.440;10.390;2023-04-15T11:55:44;20.40;;;14.63;;
77324;SDS011;66387;53.440;10.390;2023-04-15T11:58:12;25.83;;;14.35;;
77324;SDS011;66387;53.440;10.390;2023-04-15T12:00:47;19.58;;;14.43;;
77324;SDS011;66387;53.440;10.390;2023-04-15T12:03:21;18.88;;;13.38;;
77324;SDS011;66387;53.440;10.390;2023-04-15T12:13:50;18.43;;;13.33;;
77324;SDS011;66387;53.440;10.390;2023-04-15T12:16:18;16.65;;;12.02;;
77324;SDS011;66387;53.440;10.390;2023-04-15T12:18:46;16.52;;;12.65;;
77324;SDS011;66387;53.440;10.390;2023-04-15T12:21:23;17.45;;;12.70;;
77324;SDS011;66387;53.440;10.390;2023-04-15T12:23:56;17.42;;;13.98;;
77324;SDS011;66387;53.440;10.390;2023-04-15T12:26:29;16.50;;;12.00;;
77324;SDS011;66387;53.440;10.390;2023-04-15T12:29:08;14.20;;;11.57;;
77324;SDS011;66387;53.440;10.390;2023-04-15T12:31:34;15.35;;;12.00;;
77324;SDS011;66387;53.440;10.390;2023-04-15T12:34:03;15.98;;;12.30;;
77324;SDS011;66387;53.440;10.390;2023-04-15T12:36:32;15.32;;;11.80;;
77324;SDS011;66387;53.440;10.390;2023-04-15T12:39:01;17.85;;;14.52;;
77324;SDS011;66387;53.440;10.390;2023-04-15T12:41:28;16.23;;;12.48;;
77324;SDS011;66387;53.440;10.390;2023-04-15T12:43:53;16.57;;;13.07;;
77324;SDS011;66387;53.440;10.390;2023-04-15T12:46:18;17.13;;;12.43;;
77324;SDS011;66387;53.440;10.390;2023-04-15T12:48:44;15.90;;;12.50;;
77324;SDS011;66387;53.440;10.390;2023-04-15T12:51:09;16.42;;;12.35;;
77324;SDS011;66387;53.440;10.390;2023-04-15T12:53:34;15.60;;;12.07;;
77324;SDS011;66387;53.440;10.390;2023-04-15T12:56:00;14.70;;;11.97;;
77324;SDS011;66387;53.440;10.390;2023-04-15T12:58:25;15.07;;;12.13;;
77324;SDS011;66387;53.440;10.390;2023-04-15T13:00:51;16.88;;;14.02;;
77324;SDS011;66387;53.440;10.390;2023-04-15T13:03:16;15.53;;;12.97;;
77324;SDS011;66387;53.440;10.390;2023-04-15T13:05:42;15.80;;;12.87;;
77324;SDS011;66387;53.440;10.390;2023-04-15T13:08:07;15.25;;;12.07;;
77324;SDS011;66387;53.440;10.390;2023-04-15T13:10:33;16.60;;;12.27;;
77324;SDS011;66387;53.440;10.390;2023-04-15T13:13:00;16.42;;;12.50;;
77324;SDS011;66387;53.440;10.390;2023-04-15T13:15:26;17.77;;;12.63;;
77324;SDS011;66387;53.440;10.390;2023-04-15T13:17:51;13.67;;;11.47;;
77324;SDS011;66387;53.440;10.390;2023-04-15T13:20:16;16.10;;;12.57;;
77324;SDS011;66387;53.440;10.390;2023-04-15T13:22:42;13.32;;;10.65;;
77324;SDS011;66387;53.440;10.390;2023-04-15T13:25:07;14.47;;;11.33;;
77324;SDS011;66387;53.440;10.390;2023-04-15T13:27:33;15.45;;;12.50;;
77324;SDS011;66387;53.440;10.390;2023-04-15T13:29:58;16.90;;;14.17;;
77324;SDS011;66387;53.440;10.390;2023-04-15T13:32:24;16.52;;;13.40;;
77324;SDS011;66387;53.440;10.390;2023-04-15T13:34:49;15.80;;;11.93;;
77324;SDS011;66387;53.440;10.390;2023-04-15T13:37:15;18.08;;;12.32;;
77324;SDS011;66387;53.440;10.390;2023-04-15T13:39:40;15.65;;;12.40;;
77324;SDS011;66387;53.440;10.390;2023-04-15T13:42:05;15.07;;;11.77;;
77324;SDS011;66387;53.440;10.390;2023-04-15T13:44:31;14.10;;;11.17;;
77324;SDS011;66387;53.440;10.390;2023-04-15T13:46:56;12.13;;;10.70;;
77324;SDS011;66387;53.440;10.390;2023-04-15T13:49:21;14.00;;;10.02;;
77324;SDS011;66387;53.440;10.390;2023-04-15T13:51:47;13.60;;;11.10;;
77324;SDS011;66387;53.440;10.390;2023-04-15T13:54:12;15.03;;;11.27;;
77324;SDS011;66387;53.440;10.390;2023-04-15T13:56:37;15.67;;;11.40;;
77324;SDS011;66387;53.440;10.390;2023-04-15T13:59:02;15.13;;;11.55;;
77324;SDS011;66387;53.440;10.390;2023-04-15T14:01:28;13.30;;;10.27;;
77324;SDS011;66387;53.440;10.390;2023-04-15T14:03:53;12.43;;;10.65;;
77324;SDS011;66387;53.440;10.390;2023-04-15T14:06:19;16.10;;;11.68;;
77324;SDS011;66387;53.440;10.390;2023-04-15T14:08:45;14.70;;;12.20;;
77324;SDS011;66387;53.440;10.390;2023-04-15T14:11:10;15.17;;;12.13;;
77324;SDS011;66387;53.440;10.390;2023-04-15T14:13:35;14.98;;;11.18;;
77324;SDS011;66387;53.440;10.390;2023-04-15T14:16:01;14.20;;;11.95;;
77324;SDS011;66387;53.440;10.390;2023-04-15T14:18:26;14.15;;;10.48;;
77324;SDS011;66387;53.440;10.390;2023-04-15T14:20:52;13.90;;;10.90;;
77324;SDS011;66387;53.440;10.390;2023-04-15T14:23:17;14.52;;;10.63;;
77324;SDS011;66387;53.440;10.390;2023-04-15T14:25:43;16.30;;;12.07;;
77324;SDS011;66387;53.440;10.390;2023-04-15T14:28:08;16.20;;;12.13;;
77324;SDS011;66387;53.440;10.390;2023-04-15T14:30:33;13.83;;;10.63;;
77324;SDS011;66387;53.440;10.390;2023-04-15T14:32:59;12.77;;;10.43;;
77324;SDS011;66387;53.440;10.390;2023-04-15T14:35:24;19.00;;;10.65;;
77324;SDS011;66387;53.440;10.390;2023-04-15T14:37:51;13.55;;;10.50;;
77324;SDS011;66387;53.440;10.390;2023-04-15T14:40:17;12.40;;;10.80;;
77324;SDS011;66387;53.440;10.390;2023-04-15T14:42:43;13.18;;;10.70;;
77324;SDS011;66387;53.440;10.390;2023-04-15T14:45:08;14.70;;;11.95;;
77324;SDS011;66387;53.440;10.390;2023-04-15T14:47:34;14.57;;;10.65;;
77324;SDS011;66387;53.440;10.390;2023-04-15T14:49:59;13.77;;;10.77;;
77324;SDS011;66387;53.440;10.390;2023-04-15T14:52:25;12.57;;;11.30;;
77324;SDS011;66387;53.440;10.390;2023-04-15T14:54:50;14.80;;;11.93;;
77324;SDS011;66387;53.440;10.390;2023-04-15T14:57:15;15.77;;;10.73;;